Time;durP1;ratioP1;P1;durP2;ratioP2;P2;SDS_P1;SDS_P2;PMS_P1;PMS_P2;Temp;Humidity;BMP_temperature;BMP_pressure;BME280_temperature;BME280_humidity;BME280_pressure;Samples;Min_cycle;Max_cycle;Signal;HPM_P1;HPM_P2
2022/02/25 00:01:48;;;;;;;1.80;0.90;;;5.90;99.90;;;;;;5059158;28;20549;-59
2022/02/25 00:04:14;;;;;;;1.93;1.00;;;5.80;99.90;;;;;;5061076;28;20654;-58
2022/02/25 00:06:39;;;;;;;1.17;1.03;;;5.70;99.90;;;;;;5064922;28;20210;-58
2022/02/25 00:09:05;;;;;;;1.40;0.80;;;5.60;99.90;;;;;;5064417;28;20207;-59
2022/02/25 00:11:32;;;;;;;1.85;0.90;;;5.80;99.90;;;;;;5063433;28;20199;-59
2022/02/25 00:13:57;;;;;;;0.85;0.85;;;5.50;99.90;;;;;;5061066;28;20199;-58
2022/02/25 00:16:23;;;;;;;3.43;0.90;;;5.50;99.90;;;;;;5067072;28;20185;-60
2022/02/25 00:18:49;;;;;;;5.90;1.20;;;5.70;99.90;;;;;;5060142;28;20454;-59
2022/02/25 00:21:15;;;;;;;1.27;0.80;;;5.80;99.90;;;;;;5062882;28;20207;-59
2022/02/25 00:23:40;;;;;;;1.55;1.00;;;5.70;99.90;;;;;;5067747;28;20200;-59
2022/02/25 00:26:06;;;;;;;3.50;1.00;;;5.80;99.90;;;;;;5068838;28;20215;-58
2022/02/25 00:28:32;;;;;;;1.83;1.10;;;5.50;99.90;;;;;;5067556;28;20211;-61
2022/02/25 00:30:58;;;;;;;2.00;1.20;;;5.70;99.90;;;;;;5056052;28;20588;-61
2022/02/25 00:33:24;;;;;;;1.92;0.85;;;5.50;99.90;;;;;;5065363;28;20472;-62
2022/02/25 00:35:50;;;;;;;1.13;0.80;;;6.00;99.90;;;;;;5068394;28;20210;-60
2022/02/25 00:38:20;;;;;;;1.73;0.90;;;5.70;99.90;;;;;;5064251;28;20200;-60
2022/02/25 00:40:46;;;;;;;5.85;1.17;;;5.70;99.90;;;;;;5063562;28;20215;-61
2022/02/25 00:43:12;;;;;;;2.28;1.05;;;5.50;99.90;;;;;;5055267;28;20187;-59
2022/02/25 00:45:38;;;;;;;1.83;1.00;;;5.40;99.90;;;;;;5065107;28;20187;-59
2022/02/25 00:48:04;;;;;;;1.90;1.00;;;5.70;99.90;;;;;;5061241;28;20634;-59
2022/02/25 00:50:30;;;;;;;1.10;1.00;;;5.30;99.90;;;;;;5052908;28;20871;-59
2022/02/25 00:52:56;;;;;;;1.10;0.90;;;5.50;99.90;;;;;;5059668;28;20230;-62
2022/02/25 00:55:23;;;;;;;1.57;0.87;;;5.40;99.90;;;;;;5061375;28;20227;-58
2022/02/25 00:57:50;;;;;;;1.83;0.88;;;5.50;99.90;;;;;;5067046;28;20441;-60
2022/02/25 01:00:18;;;;;;;3.72;1.30;;;5.20;99.90;;;;;;5063134;28;20260;-60
2022/02/25 01:02:44;;;;;;;1.23;1.00;;;5.50;99.90;;;;;;5062195;28;20217;-60
2022/02/25 01:05:10;;;;;;;1.50;0.90;;;5.30;99.90;;;;;;5051283;28;20718;-60
2022/02/25 01:07:38;;;;;;;2.25;1.13;;;5.50;99.90;;;;;;5068065;28;20259;-61
2022/02/25 01:10:05;;;;;;;3.80;1.15;;;5.30;99.90;;;;;;5068330;28;20190;-59
2022/02/25 01:12:31;;;;;;;1.17;1.00;;;5.30;99.90;;;;;;5051816;28;20228;-60
2022/02/25 01:14:57;;;;;;;1.52;1.20;;;4.80;99.90;;;;;;5052541;28;20727;-57
2022/02/25 01:17:23;;;;;;;2.73;1.23;;;5.60;99.90;;;;;;5067302;28;20281;-61
2022/02/25 01:19:49;;;;;;;1.40;1.20;;;5.00;99.90;;;;;;5058996;28;20195;-61
2022/02/25 01:22:15;;;;;;;1.23;1.10;;;5.40;99.90;;;;;;5066451;28;20674;-61
2022/02/25 01:24:41;;;;;;;2.17;1.23;;;5.10;99.90;;;;;;5050487;28;20189;-57
2022/02/25 01:27:08;;;;;;;1.45;1.13;;;5.20;99.90;;;;;;5055101;28;20191;-60
2022/02/25 01:29:34;;;;;;;1.35;1.00;;;5.00;99.90;;;;;;5052848;28;20214;-60
2022/02/25 01:31:59;;;;;;;1.98;1.15;;;4.70;99.90;;;;;;5066653;28;20217;-62
2022/02/25 01:34:25;;;;;;;1.57;1.00;;;4.80;99.90;;;;;;5063873;28;20208;-57
2022/02/25 01:36:51;;;;;;;4.40;1.20;;;4.90;99.90;;;;;;5065219;28;20670;-61
2022/02/25 01:39:16;;;;;;;1.33;0.90;;;4.70;99.90;;;;;;5059327;28;20254;-59
2022/02/25 01:41:42;;;;;;;1.50;1.20;;;4.60;99.90;;;;;;5057047;28;20717;-64
2022/02/25 01:44:18;;;;;;;2.00;0.97;;;4.50;99.90;;;;;;5063485;28;20249;-61
2022/02/25 01:46:46;;;;;;;2.20;1.20;;;4.70;99.90;;;;;;5051335;28;20255;-60
2022/02/25 01:49:12;;;;;;;2.83;1.08;;;4.40;99.90;;;;;;5066619;28;20189;-58
2022/02/25 01:51:38;;;;;;;1.73;1.13;;;4.60;99.90;;;;;;5067964;28;20248;-57
2022/02/25 01:54:03;;;;;;;1.17;1.08;;;4.40;99.90;;;;;;5069822;28;20194;-58
2022/02/25 01:56:29;;;;;;;2.30;1.07;;;4.20;99.90;;;;;;5064880;28;20192;-58
2022/02/25 01:58:55;;;;;;;1.30;1.20;;;4.40;99.90;;;;;;5046185;28;20182;-60
2022/02/25 02:01:21;;;;;;;2.40;1.13;;;4.40;99.90;;;;;;5066494;28;20221;-61
2022/02/25 02:03:46;;;;;;;1.70;1.20;;;4.40;99.90;;;;;;5061317;28;20452;-59
2022/02/25 02:06:12;;;;;;;1.80;0.83;;;4.50;99.90;;;;;;5072695;28;20195;-57
2022/02/25 02:08:37;;;;;;;1.70;1.20;;;4.40;99.90;;;;;;5064370;28;20292;-60
2022/02/25 02:11:04;;;;;;;1.00;0.90;;;4.70;99.90;;;;;;5069828;28;20236;-61
2022/02/25 02:13:29;;;;;;;2.63;1.00;;;4.40;99.90;;;;;;5059796;28;20190;-59
2022/02/25 02:15:55;;;;;;;2.83;1.23;;;4.30;99.90;;;;;;5065277;28;20489;-57
2022/02/25 02:18:20;;;;;;;2.13;1.23;;;4.10;99.90;;;;;;5066224;28;20324;-61
2022/02/25 02:20:46;;;;;;;2.07;1.40;;;4.20;99.90;;;;;;5070161;28;20193;-58
2022/02/25 02:23:12;;;;;;;2.50;1.30;;;3.90;99.90;;;;;;5070654;28;20189;-56
2022/02/25 02:25:37;;;;;;;1.77;1.00;;;4.10;99.90;;;;;;5067282;28;20189;-56
2022/02/25 02:28:20;;;;;;;1.43;1.13;;;4.00;99.90;;;;;;5063589;28;20217;-60
2022/02/25 02:30:46;;;;;;;1.88;1.10;;;4.00;99.90;;;;;;5067610;28;20179;-58
2022/02/25 02:33:12;;;;;;;2.25;0.90;;;3.70;99.90;;;;;;5067881;28;20191;-58
2022/02/25 02:35:38;;;;;;;1.47;1.10;;;3.90;99.90;;;;;;5062343;28;20272;-58
2022/02/25 02:38:05;;;;;;;5.07;1.20;;;4.00;99.90;;;;;;5063312;28;20521;-59
2022/02/25 02:40:31;;;;;;;2.15;1.20;;;4.00;99.90;;;;;;5050354;28;20907;-58
2022/02/25 02:42:57;;;;;;;1.20;0.90;;;3.80;99.90;;;;;;5065256;28;20219;-60
2022/02/25 02:45:23;;;;;;;3.47;1.33;;;4.00;99.90;;;;;;5068506;28;20194;-60
2022/02/25 02:47:48;;;;;;;2.50;1.27;;;3.80;99.90;;;;;;5067210;28;20995;-59
2022/02/25 02:50:14;;;;;;;2.07;1.40;;;3.90;99.90;;;;;;5061531;28;20444;-57
2022/02/25 02:52:40;;;;;;;1.60;0.90;;;3.80;99.90;;;;;;5069479;28;20242;-59
2022/02/25 02:55:07;;;;;;;1.70;0.90;;;3.60;99.90;;;;;;5062247;28;20185;-57
2022/02/25 02:57:32;;;;;;;5.38;1.17;;;3.80;99.90;;;;;;5066593;28;20459;-59
2022/02/25 02:59:58;;;;;;;1.30;1.10;;;3.70;99.90;;;;;;5061501;28;20205;-60
2022/02/25 03:02:24;;;;;;;4.60;1.60;;;3.60;99.90;;;;;;5067877;28;20206;-57
2022/02/25 03:04:50;;;;;;;2.23;1.17;;;4.30;99.90;;;;;;5060816;28;20550;-58
2022/02/25 03:07:15;;;;;;;3.33;1.20;;;3.90;99.90;;;;;;5065292;28;20182;-60
2022/02/25 03:09:41;;;;;;;6.70;1.40;;;3.90;99.90;;;;;;5071270;28;20222;-61
2022/02/25 03:12:08;;;;;;;2.40;1.00;;;3.90;99.90;;;;;;5074633;28;20205;-57
2022/02/25 03:14:34;;;;;;;4.90;1.33;;;3.80;99.90;;;;;;5061544;28;20194;-58
2022/02/25 03:17:00;;;;;;;3.15;1.10;;;3.80;99.90;;;;;;5065754;28;20199;-59
2022/02/25 03:19:26;;;;;;;2.80;1.20;;;3.90;99.90;;;;;;5061662;28;20181;-59
2022/02/25 03:21:52;;;;;;;4.40;1.80;;;3.80;99.90;;;;;;5052035;28;20201;-60
2022/02/25 03:24:18;;;;;;;1.83;1.10;;;4.20;99.90;;;;;;5072843;28;20679;-60
2022/02/25 03:26:43;;;;;;;2.40;1.37;;;3.20;99.90;;;;;;5064921;28;20524;-60
2022/02/25 03:29:10;;;;;;;2.70;1.70;;;3.70;99.90;;;;;;5062550;28;20231;-61
2022/02/25 03:31:35;;;;;;;3.35;1.17;;;3.70;99.90;;;;;;5075016;28;20213;-60
2022/02/25 03:34:01;;;;;;;2.67;1.10;;;3.90;99.90;;;;;;5063103;28;20590;-59
2022/02/25 03:36:27;;;;;;;2.67;1.00;;;3.30;99.90;;;;;;5067781;28;20188;-61
2022/02/25 03:38:53;;;;;;;2.00;1.45;;;3.80;99.90;;;;;;5063362;28;20260;-60
2022/02/25 03:41:19;;;;;;;9.00;2.17;;;3.70;99.90;;;;;;5068480;28;20213;-61
2022/02/25 03:43:44;;;;;;;1.60;1.37;;;3.70;99.90;;;;;;5062175;28;20803;-59
2022/02/25 03:46:10;;;;;;;1.77;1.13;;;3.40;99.90;;;;;;5063192;28;20561;-59
2022/02/25 03:48:35;;;;;;;2.27;1.30;;;3.60;99.90;;;;;;5063552;28;20220;-59
2022/02/25 03:51:01;;;;;;;8.13;1.53;;;3.50;99.90;;;;;;5070525;28;20197;-60
2022/02/25 03:53:28;;;;;;;2.07;1.40;;;3.20;99.90;;;;;;5068415;28;20539;-57
2022/02/25 03:55:54;;;;;;;1.42;1.30;;;3.20;99.90;;;;;;5068254;28;20562;-61
2022/02/25 03:58:19;;;;;;;3.47;1.43;;;2.90;99.90;;;;;;5063704;28;20177;-57
2022/02/25 04:00:45;;;;;;;3.77;1.40;;;3.00;99.90;;;;;;5069163;28;20510;-57
2022/02/25 04:03:11;;;;;;;3.20;1.48;;;2.90;99.90;;;;;;5064721;28;20185;-57
2022/02/25 04:05:37;;;;;;;3.43;1.27;;;3.10;99.90;;;;;;5065850;28;20231;-57
2022/02/25 04:08:03;;;;;;;5.50;1.57;;;3.00;99.90;;;;;;5059906;28;20233;-60
2022/02/25 04:10:28;;;;;;;2.60;1.13;;;3.30;99.90;;;;;;5063359;28;20227;-59
2022/02/25 04:12:54;;;;;;;2.63;1.03;;;3.20;99.90;;;;;;5061389;28;20460;-57
2022/02/25 04:15:20;;;;;;;3.53;1.43;;;3.00;99.90;;;;;;5063336;28;20185;-57
2022/02/25 04:17:45;;;;;;;3.73;1.20;;;3.20;99.90;;;;;;5066574;28;20467;-58
2022/02/25 04:20:11;;;;;;;6.30;1.40;;;3.10;99.90;;;;;;5058456;28;20703;-59
2022/02/25 04:22:37;;;;;;;4.30;1.73;;;3.20;99.90;;;;;;5068401;28;20251;-60
2022/02/25 04:25:03;;;;;;;7.97;1.50;;;2.90;99.90;;;;;;5066318;28;20470;-57
2022/02/25 04:27:29;;;;;;;1.98;1.30;;;2.90;99.90;;;;;;5065472;28;20819;-57
2022/02/25 04:29:55;;;;;;;1.00;0.90;;;2.70;99.90;;;;;;5059503;28;20193;-62
2022/02/25 04:32:20;;;;;;;3.40;1.00;;;2.80;99.90;;;;;;5043152;28;20240;-55
2022/02/25 04:34:48;;;;;;;3.20;1.33;;;3.30;99.90;;;;;;5058639;28;20765;-60
2022/02/25 04:37:14;;;;;;;8.10;2.20;;;3.50;99.90;;;;;;5065404;28;20193;-58
2022/02/25 04:39:39;;;;;;;3.50;1.70;;;2.70;99.90;;;;;;5038659;28;20564;-59
2022/02/25 04:42:05;;;;;;;2.80;1.60;;;3.30;99.90;;;;;;5063260;28;20209;-59
2022/02/25 04:44:31;;;;;;;2.70;2.20;;;3.30;99.90;;;;;;5062748;28;20239;-57
2022/02/25 04:46:57;;;;;;;2.33;1.27;;;3.40;99.90;;;;;;5066642;28;20185;-60
2022/02/25 04:49:22;;;;;;;3.30;1.30;;;3.30;99.90;;;;;;5054251;28;20224;-59
2022/02/25 04:51:48;;;;;;;5.23;1.50;;;2.90;99.90;;;;;;5054378;28;20459;-56
2022/02/25 04:54:14;;;;;;;4.00;1.63;;;3.20;99.90;;;;;;5065131;28;20217;-57
2022/02/25 04:56:39;;;;;;;2.07;1.20;;;3.10;99.90;;;;;;5065534;28;20184;-58
2022/02/25 04:59:08;;;;;;;3.93;1.23;;;3.40;99.90;;;;;;5061600;28;20177;-59
2022/02/25 05:01:34;;;;;;;2.80;1.65;;;3.20;99.90;;;;;;5065960;28;20211;-60
2022/02/25 05:03:59;;;;;;;5.30;1.70;;;3.30;99.90;;;;;;5054989;28;20574;-60
2022/02/25 05:06:25;;;;;;;2.70;1.53;;;3.50;99.90;;;;;;5054046;28;20190;-57
2022/02/25 05:08:53;;;;;;;4.47;1.50;;;3.30;99.90;;;;;;5059173;28;20206;-61
2022/02/25 05:11:20;;;;;;;3.72;1.85;;;3.30;99.90;;;;;;5063928;28;20201;-58
2022/02/25 05:13:45;;;;;;;4.60;1.75;;;3.40;99.90;;;;;;5060240;28;20261;-58
2022/02/25 05:21:39;;;;;;;2.28;1.40;;;3.60;99.90;;;;;;5063210;28;20711;-60
2022/02/25 05:24:05;;;;;;;3.80;1.47;;;3.00;99.90;;;;;;5063924;28;20189;-59
2022/02/25 05:26:31;;;;;;;3.42;1.48;;;3.70;99.90;;;;;;5068368;28;20627;-59
2022/02/25 05:28:57;;;;;;;2.00;1.10;;;3.60;99.90;;;;;;5055473;28;20225;-58
2022/02/25 05:31:22;;;;;;;6.10;1.70;;;3.70;99.90;;;;;;5056041;28;20539;-59
2022/02/25 05:33:48;;;;;;;3.50;1.40;;;4.30;99.90;;;;;;5060344;28;20681;-58
2022/02/25 05:36:14;;;;;;;2.10;1.23;;;3.80;99.90;;;;;;5050621;28;20577;-60
2022/02/25 05:38:41;;;;;;;2.65;1.25;;;4.40;99.90;;;;;;5061753;28;20193;-60
2022/02/25 05:41:06;;;;;;;3.90;1.15;;;4.10;99.90;;;;;;5067057;28;20224;-57
2022/02/25 05:43:32;;;;;;;2.60;1.00;;;4.00;99.90;;;;;;5069092;28;20699;-61
2022/02/25 05:45:58;;;;;;;2.00;1.20;;;4.10;99.90;;;;;;5052516;28;20186;-60
2022/02/25 05:48:23;;;;;;;3.77;1.50;;;3.80;99.90;;;;;;5060198;28;20209;-61
2022/02/25 05:50:50;;;;;;;3.50;1.13;;;4.20;99.90;;;;;;5037274;28;20607;-60
2022/02/25 05:53:15;;;;;;;1.63;0.90;;;3.90;99.90;;;;;;5066083;28;20211;-60
2022/02/25 05:55:41;;;;;;;3.97;1.70;;;4.00;99.90;;;;;;5066674;28;20193;-61
2022/02/25 05:58:07;;;;;;;5.50;1.83;;;3.90;99.90;;;;;;5054496;28;20193;-61
2022/02/25 06:00:33;;;;;;;3.63;2.03;;;4.20;99.90;;;;;;5057738;28;20219;-59
2022/02/25 06:02:58;;;;;;;2.75;1.70;;;4.20;99.90;;;;;;5059340;28;20215;-62
2022/02/25 06:05:24;;;;;;;1.80;1.47;;;4.30;99.90;;;;;;5055991;28;20228;-60
2022/02/25 06:07:50;;;;;;;3.10;1.57;;;4.50;99.90;;;;;;5056995;28;20186;-59
2022/02/25 06:10:16;;;;;;;4.87;1.70;;;4.40;99.90;;;;;;5062845;28;20270;-59
2022/02/25 06:12:42;;;;;;;2.65;1.85;;;4.40;99.90;;;;;;5065256;28;20798;-61
2022/02/25 06:15:09;;;;;;;4.47;1.70;;;4.20;99.90;;;;;;5045616;28;20185;-58
2022/02/25 06:17:43;;;;;;;2.65;1.13;;;4.10;99.90;;;;;;5065679;28;20235;-59
2022/02/25 06:20:09;;;;;;;4.00;1.52;;;3.70;99.90;;;;;;5051860;28;20188;-58
2022/02/25 06:22:35;;;;;;;2.92;1.45;;;4.30;99.90;;;;;;5054597;28;20209;-59
2022/02/25 06:25:00;;;;;;;4.90;1.50;;;3.80;99.90;;;;;;5066014;28;20185;-60
2022/02/25 06:27:26;;;;;;;5.67;1.97;;;4.50;99.90;;;;;;5060612;28;20187;-60
2022/02/25 06:29:51;;;;;;;6.27;1.77;;;4.30;99.90;;;;;;5051399;28;20208;-57
2022/02/25 06:32:17;;;;;;;4.33;1.80;;;4.60;99.90;;;;;;5065071;28;20272;-57
2022/02/25 06:34:43;;;;;;;7.50;2.13;;;4.30;99.90;;;;;;5059073;28;20221;-63
2022/02/25 06:37:08;;;;;;;3.40;2.60;;;4.20;99.90;;;;;;5056461;28;20201;-60
2022/02/25 06:39:34;;;;;;;6.47;2.30;;;4.10;99.90;;;;;;5065221;28;20204;-60
2022/02/25 06:42:00;;;;;;;2.60;1.50;;;3.30;99.90;;;;;;5041467;28;20205;-59
2022/02/25 06:44:25;;;;;;;4.13;1.70;;;3.70;99.90;;;;;;5059712;28;20265;-69
2022/02/25 06:46:51;;;;;;;11.57;2.77;;;4.00;99.90;;;;;;5053854;28;20228;-64
2022/02/25 06:49:17;;;;;;;4.73;2.07;;;3.90;99.90;;;;;;5048630;28;20584;-64
2022/02/25 06:51:42;;;;;;;3.47;1.37;;;3.30;99.90;;;;;;5068173;28;20200;-62
2022/02/25 06:54:08;;;;;;;3.13;1.63;;;4.00;99.90;;;;;;5063260;28;20181;-62
2022/02/25 06:56:33;;;;;;;3.60;1.77;;;4.00;99.90;;;;;;5060071;28;20186;-64
2022/02/25 06:58:59;;;;;;;4.67;2.47;;;3.70;99.90;;;;;;5055123;28;20177;-63
2022/02/25 07:01:25;;;;;;;8.30;1.70;;;4.00;99.90;;;;;;5069432;28;20583;-63
2022/02/25 07:03:50;;;;;;;6.60;3.07;;;4.00;99.90;;;;;;5056198;28;20421;-66
2022/02/25 07:06:17;;;;;;;4.50;2.10;;;3.80;99.90;;;;;;5064946;28;20205;-63
2022/02/25 07:08:43;;;;;;;2.67;1.58;;;3.90;99.90;;;;;;5058935;28;20214;-64
2022/02/25 07:11:09;;;;;;;9.57;3.03;;;3.90;99.90;;;;;;5042486;28;20229;-63
2022/02/25 07:13:34;;;;;;;4.37;2.60;;;4.00;99.90;;;;;;5057356;28;20529;-63
2022/02/25 07:16:00;;;;;;;3.20;1.60;;;4.20;99.90;;;;;;5064113;28;20188;-62
2022/02/25 07:18:26;;;;;;;4.97;1.40;;;4.10;99.90;;;;;;5050217;28;20191;-62
2022/02/25 07:20:52;;;;;;;4.60;1.98;;;4.10;99.90;;;;;;5055850;28;20455;-61
2022/02/25 07:23:17;;;;;;;4.43;1.97;;;4.00;99.90;;;;;;5066377;28;20560;-61
2022/02/25 07:25:43;;;;;;;5.00;1.87;;;4.00;99.90;;;;;;5065617;28;20200;-62
2022/02/25 07:28:09;;;;;;;2.50;1.20;;;4.10;99.90;;;;;;5059639;28;21353;-62
2022/02/25 07:30:35;;;;;;;2.88;1.75;;;4.30;99.90;;;;;;5038355;28;20195;-66
2022/02/25 07:33:01;;;;;;;6.13;1.75;;;4.20;99.90;;;;;;5066029;28;20211;-62
2022/02/25 07:35:28;;;;;;;7.23;2.40;;;4.50;99.90;;;;;;5065209;28;21528;-66
2022/02/25 07:37:55;;;;;;;8.48;1.90;;;3.90;99.90;;;;;;5068393;28;21010;-60
2022/02/25 07:40:21;;;;;;;1.45;1.30;;;4.10;99.90;;;;;;5068454;28;20190;-61
2022/02/25 07:42:46;;;;;;;3.17;1.30;;;4.80;99.90;;;;;;5059589;28;20907;-60
2022/02/25 07:45:12;;;;;;;4.40;1.87;;;5.20;99.90;;;;;;5049288;28;20447;-64
2022/02/25 07:47:38;;;;;;;5.97;2.00;;;5.00;99.90;;;;;;5063678;28;20982;-75
2022/02/25 07:50:09;;;;;;;5.43;2.30;;;5.10;99.90;;;;;;5061672;28;21017;-72
2022/02/25 07:52:35;;;;;;;4.82;1.20;;;4.90;99.90;;;;;;5045663;28;21056;-71
2022/02/25 07:55:01;;;;;;;2.10;1.50;;;5.20;99.90;;;;;;5053004;28;20191;-70
2022/02/25 07:57:27;;;;;;;4.50;1.67;;;5.20;99.90;;;;;;5067611;28;20191;-63
2022/02/25 07:59:53;;;;;;;4.30;2.40;;;5.20;99.90;;;;;;5068511;28;20678;-63
2022/02/25 08:02:18;;;;;;;3.10;1.90;;;5.20;99.60;;;;;;5058859;28;20466;-64
2022/02/25 08:04:44;;;;;;;8.03;1.40;;;5.40;99.60;;;;;;5034403;28;20264;-67
2022/02/25 08:07:09;;;;;;;2.70;1.90;;;5.30;99.00;;;;;;5066205;28;20182;-63
2022/02/25 08:09:35;;;;;;;3.43;1.73;;;5.30;98.80;;;;;;5060763;28;20193;-63
2022/02/25 08:12:02;;;;;;;6.88;1.60;;;5.40;98.60;;;;;;5061561;28;20225;-65
2022/02/25 08:14:29;;;;;;;5.85;1.60;;;5.50;98.40;;;;;;5053070;28;20830;-66
2022/02/25 08:16:56;;;;;;;5.07;1.90;;;5.60;98.40;;;;;;5062699;28;20606;-67
2022/02/25 08:19:21;;;;;;;3.72;1.75;;;5.50;98.00;;;;;;5062016;28;20329;-71
2022/02/25 08:21:47;;;;;;;6.07;1.83;;;6.00;98.00;;;;;;5051241;28;20620;-65
2022/02/25 08:24:13;;;;;;;4.30;1.50;;;6.00;97.60;;;;;;5062404;28;20187;-65
2022/02/25 08:26:38;;;;;;;10.60;3.10;;;5.50;97.10;;;;;;5058100;28;20179;-67
2022/02/25 08:29:04;;;;;;;8.83;1.70;;;5.70;97.00;;;;;;5054475;28;20956;-66
2022/02/25 08:31:30;;;;;;;2.80;1.63;;;6.00;96.80;;;;;;5058634;28;20583;-66
2022/02/25 08:33:55;;;;;;;4.23;1.97;;;6.10;96.70;;;;;;5060236;28;20215;-68
2022/02/25 08:36:21;;;;;;;3.93;1.73;;;6.10;96.70;;;;;;5059451;28;20211;-66
2022/02/25 08:38:47;;;;;;;4.67;1.67;;;6.20;96.60;;;;;;5064306;28;20196;-61
2022/02/25 08:41:13;;;;;;;4.53;1.50;;;6.20;96.80;;;;;;5055153;28;20304;-62
2022/02/25 08:43:39;;;;;;;3.30;1.47;;;6.00;96.70;;;;;;5061970;28;20663;-65
2022/02/25 08:46:05;;;;;;;5.88;1.60;;;6.00;96.60;;;;;;5050433;28;20579;-68
2022/02/25 08:48:32;;;;;;;4.90;1.63;;;6.00;96.40;;;;;;5051335;28;20227;-64
2022/02/25 08:50:58;;;;;;;4.32;1.38;;;6.50;95.90;;;;;;5047414;28;20197;-66
2022/02/25 08:53:24;;;;;;;4.32;1.52;;;6.50;96.30;;;;;;5058813;28;20174;-64
2022/02/25 08:55:50;;;;;;;7.25;1.58;;;6.30;96.10;;;;;;5067279;28;20175;-66
2022/02/25 08:58:16;;;;;;;6.22;2.03;;;6.10;95.70;;;;;;5059659;28;20224;-64
2022/02/25 09:00:42;;;;;;;3.83;1.75;;;7.40;95.40;;;;;;5068805;28;20606;-63
2022/02/25 09:03:08;;;;;;;4.87;1.63;;;8.50;93.60;;;;;;5062548;28;20196;-64
2022/02/25 09:05:34;;;;;;;3.60;1.63;;;9.40;91.50;;;;;;5050917;28;20435;-65
2022/02/25 09:07:59;;;;;;;2.77;1.60;;;10.90;87.70;;;;;;5058372;28;21205;-65
2022/02/25 09:10:25;;;;;;;4.67;1.83;;;11.20;82.40;;;;;;5062722;28;20468;-63
2022/02/25 09:12:52;;;;;;;2.73;1.50;;;11.60;79.20;;;;;;5044231;28;20204;-65
2022/02/25 09:15:25;;;;;;;3.08;1.73;;;12.20;77.80;;;;;;5064823;28;20438;-63
2022/02/25 09:17:52;;;;;;;5.70;1.90;;;12.10;75.40;;;;;;5064399;28;20263;-63
2022/02/25 09:20:18;;;;;;;3.40;1.40;;;12.20;75.40;;;;;;5067477;22;20473;-62
2022/02/25 09:22:43;;;;;;;4.93;2.60;;;12.30;74.30;;;;;;5042356;28;20209;-61
2022/02/25 09:25:09;;;;;;;6.30;1.77;;;12.30;73.20;;;;;;5047911;28;20174;-62
2022/02/25 09:27:35;;;;;;;2.53;1.30;;;11.80;74.60;;;;;;5042609;28;20533;-60
2022/02/25 09:30:01;;;;;;;5.10;2.20;;;11.50;74.30;;;;;;5039329;28;20621;-60
2022/02/25 09:32:27;;;;;;;6.20;1.47;;;11.70;75.60;;;;;;5047004;28;20197;-64
2022/02/25 09:34:52;;;;;;;4.07;1.63;;;11.70;72.70;;;;;;5036879;28;20944;-62
2022/02/25 09:37:18;;;;;;;4.60;2.17;;;12.30;72.60;;;;;;5033090;28;20204;-65
2022/02/25 09:39:43;;;;;;;2.17;1.67;;;13.00;69.20;;;;;;5044018;28;20184;-66
2022/02/25 09:42:09;;;;;;;3.30;1.70;;;13.30;66.90;;;;;;5025829;28;20237;-65
2022/02/25 09:44:36;;;;;;;6.30;1.70;;;13.80;65.70;;;;;;5026364;28;20184;-62
2022/02/25 09:47:02;;;;;;;3.58;1.77;;;13.60;64.10;;;;;;5039647;28;20471;-65
2022/02/25 09:49:28;;;;;;;2.45;1.65;;;13.50;65.30;;;;;;5039450;28;20202;-67
2022/02/25 09:51:55;;;;;;;2.90;1.37;;;14.10;63.50;;;;;;5044580;28;20189;-65
2022/02/25 09:54:21;;;;;;;2.03;1.20;;;14.50;61.20;;;;;;5044949;28;20238;-65
2022/02/25 09:56:48;;;;;;;4.60;1.57;;;14.80;59.40;;;;;;5036965;28;20181;-65
2022/02/25 09:59:15;;;;;;;2.38;1.50;;;14.40;59.80;;;;;;5044178;28;20845;-68
2022/02/25 10:01:41;;;;;;;4.70;2.15;;;14.50;58.70;;;;;;5046707;28;20422;-63
2022/02/25 10:04:22;;;;;;;3.63;1.40;;;14.10;58.70;;;;;;5041682;28;20350;-62
2022/02/25 10:06:49;;;;;;;6.18;2.60;;;14.00;60.00;;;;;;5042184;28;20505;-62
2022/02/25 10:09:35;;;;;;;4.82;1.75;;;13.60;59.10;;;;;;5044276;28;20283;-61
2022/02/25 10:12:09;;;;;;;2.97;1.33;;;13.80;60.30;;;;;;5047891;28;20693;-71
2022/02/25 10:14:40;;;;;;;2.45;1.45;;;13.60;60.00;;;;;;5030807;28;20200;-59
2022/02/25 10:17:06;;;;;;;3.28;1.48;;;13.40;59.20;;;;;;5047025;28;20209;-62
2022/02/25 10:19:32;;;;;;;2.55;1.40;;;13.00;60.30;;;;;;5038286;28;20186;-62
2022/02/25 10:22:23;;;;;;;2.60;1.37;;;12.60;60.60;;;;;;5025839;28;20226;-62
2022/02/25 10:24:51;;;;;;;3.85;1.60;;;13.20;62.30;;;;;;5042093;28;21311;-62
2022/02/25 10:27:39;;;;;;;2.10;1.13;;;12.90;60.50;;;;;;5042421;28;20930;-62
2022/02/25 10:30:11;;;;;;;4.95;1.50;;;13.00;60.40;;;;;;5040841;28;20209;-64
2022/02/25 10:32:42;;;;;;;2.17;1.10;;;12.50;60.20;;;;;;5032044;28;20645;-62
2022/02/25 10:35:26;;;;;;;5.45;1.52;;;11.70;61.80;;;;;;5046592;28;20178;-63
2022/02/25 10:37:55;;;;;;;1.63;1.25;;;11.50;63.90;;;;;;5049222;28;20253;-63
2022/02/25 10:40:22;;;;;;;3.85;1.45;;;11.10;65.10;;;;;;5048169;28;20271;-62
2022/02/25 10:42:48;;;;;;;4.13;1.30;;;10.50;66.90;;;;;;5046006;28;20373;-66
2022/02/25 10:45:33;;;;;;;1.83;1.17;;;10.90;67.40;;;;;;5042948;28;20788;-67
2022/02/25 10:48:02;;;;;;;4.60;1.80;;;11.40;64.70;;;;;;5024502;28;20195;-65
2022/02/25 10:50:29;;;;;;;2.95;1.30;;;11.60;62.90;;;;;;5027451;28;20188;-67
2022/02/25 10:52:56;;;;;;;1.50;1.10;;;12.40;60.80;;;;;;5050250;28;20228;-62
2022/02/25 10:55:25;;;;;;;6.22;1.60;;;12.50;59.10;;;;;;5046292;28;20252;-62
2022/02/25 10:57:53;;;;;;;2.65;1.25;;;13.40;58.40;;;;;;5035399;28;20178;-62
2022/02/25 11:00:19;;;;;;;2.20;1.05;;;13.00;58.50;;;;;;5040483;28;20265;-65
2022/02/25 11:02:50;;;;;;;4.60;1.45;;;12.80;58.50;;;;;;5045247;28;20255;-62
2022/02/25 11:05:21;;;;;;;5.90;2.00;;;13.10;58.20;;;;;;5040393;28;21129;-62
2022/02/25 11:07:49;;;;;;;4.25;1.48;;;13.20;58.00;;;;;;5046103;28;20232;-63
2022/02/25 11:10:18;;;;;;;1.67;1.13;;;13.20;56.10;;;;;;5050699;28;20292;-63
2022/02/25 11:12:45;;;;;;;2.85;1.50;;;13.90;55.90;;;;;;5021811;28;20673;-63
2022/02/25 11:15:14;;;;;;;2.78;1.30;;;13.80;57.20;;;;;;5049408;28;20186;-61
2022/02/25 11:17:42;;;;;;;2.92;1.95;;;14.50;56.70;;;;;;5031238;28;20282;-63
2022/02/25 11:20:08;;;;;;;5.22;1.20;;;14.20;56.90;;;;;;5047725;28;20186;-64
2022/02/25 11:22:39;;;;;;;2.88;1.23;;;14.00;55.50;;;;;;5046914;28;20292;-64
2022/02/25 11:25:16;;;;;;;2.88;1.08;;;13.20;56.50;;;;;;5026749;28;20192;-64
2022/02/25 11:27:43;;;;;;;2.75;1.10;;;13.00;55.80;;;;;;5049429;28;20684;-64
2022/02/25 11:30:15;;;;;;;4.53;1.88;;;13.40;55.70;;;;;;5048048;28;20217;-63
2022/02/25 11:32:49;;;;;;;3.40;1.58;;;13.90;55.60;;;;;;5048636;28;20212;-63
2022/02/25 11:35:38;;;;;;;3.72;2.05;;;13.90;55.30;;;;;;5032915;28;20602;-62
2022/02/25 11:38:07;;;;;;;3.72;1.83;;;13.70;53.70;;;;;;5038343;28;20174;-64
2022/02/25 11:40:51;;;;;;;4.07;1.58;;;13.60;54.60;;;;;;5045883;28;20716;-63
2022/02/25 11:43:42;;;;;;;2.70;1.30;;;13.60;54.10;;;;;;5043277;28;20216;-64
2022/02/25 11:46:22;;;;;;;2.65;1.35;;;13.40;54.20;;;;;;5039519;28;20260;-64
2022/02/25 11:48:55;;;;;;;3.00;1.35;;;13.20;55.40;;;;;;5037234;28;21375;-65
2022/02/25 11:51:32;;;;;;;4.05;1.52;;;12.20;55.20;;;;;;5041191;28;20232;-65
2022/02/25 11:54:16;;;;;;;4.93;1.38;;;12.20;56.90;;;;;;5047038;28;20578;-65
2022/02/25 11:56:42;;;;;;;5.65;1.50;;;11.90;56.90;;;;;;5042144;28;20185;-65
2022/02/25 11:59:08;;;;;;;3.17;1.10;;;12.00;57.60;;;;;;5050678;28;20242;-65
2022/02/25 12:01:34;;;;;;;3.50;1.37;;;11.80;57.20;;;;;;5049241;28;20467;-65
2022/02/25 12:04:07;;;;;;;3.40;1.40;;;11.40;57.80;;;;;;5043230;28;20494;-63
2022/02/25 12:07:10;;;;;;;2.15;1.20;;;11.50;59.60;;;;;;5046728;28;20664;-65
2022/02/25 12:09:55;;;;;;;2.80;1.52;;;11.80;58.40;;;;;;5026845;28;20214;-65
2022/02/25 12:12:23;;;;;;;2.47;1.48;;;11.90;61.30;;;;;;5031272;28;20220;-63
2022/02/25 12:15:09;;;;;;;3.15;1.00;;;11.30;58.60;;;;;;5038118;28;20267;-63
2022/02/25 12:17:50;;;;;;;2.53;1.40;;;11.60;59.60;;;;;;5047236;28;20228;-63
2022/02/25 12:20:41;;;;;;;4.93;1.67;;;11.90;59.10;;;;;;5040658;28;20191;-66
2022/02/25 12:23:11;;;;;;;10.05;5.97;;;11.30;58.80;;;;;;5042961;28;20195;-67
2022/02/25 12:25:43;;;;;;;2.95;1.55;;;11.50;60.90;;;;;;5043103;28;20191;-63
2022/02/25 12:30:59;;;;;;;2.45;1.48;;;11.30;60.70;;;;;;5046391;28;20292;-63
2022/02/25 12:33:43;;;;;;;2.88;1.50;;;11.50;60.10;;;;;;5042760;28;20210;-63
2022/02/25 12:36:16;;;;;;;1.42;1.33;;;11.00;59.90;;;;;;5050626;28;20186;-64
2022/02/25 12:38:49;;;;;;;3.17;1.75;;;10.50;61.10;;;;;;5045366;28;20186;-64
2022/02/25 12:41:21;;;;;;;4.57;1.90;;;10.00;61.90;;;;;;5049087;28;20213;-64
2022/02/25 12:43:58;;;;;;;3.35;1.98;;;9.90;65.70;;;;;;5045149;28;20213;-64
2022/02/25 12:46:35;;;;;;;3.25;1.88;;;10.30;65.50;;;;;;5041513;28;20257;-64
2022/02/25 12:49:03;;;;;;;3.47;1.20;;;10.10;64.80;;;;;;5028411;28;20221;-64
2022/02/25 12:51:29;;;;;;;2.70;0.95;;;9.80;66.50;;;;;;5048367;28;20755;-64
2022/02/25 12:54:04;;;;;;;2.90;1.40;;;10.00;65.80;;;;;;5032381;28;20822;-65
2022/02/25 12:56:35;;;;;;;2.45;1.38;;;10.00;66.00;;;;;;5050711;28;20178;-66
2022/02/25 12:59:08;;;;;;;1.85;1.30;;;9.70;67.10;;;;;;5040973;28;20177;-63
2022/02/25 13:01:36;;;;;;;5.80;1.83;;;9.80;68.20;;;;;;5046319;28;20547;-63
2022/02/25 13:04:06;;;;;;;4.05;1.30;;;9.50;68.40;;;;;;5038071;28;20188;-63